sensor_id;sensor_type;location;lat;lon;timestamp;temperature;humidity
26687;DHT22;14298;50.900;4.648;2022-12-18T00:02:08;-4.00;97.10
26687;DHT22;14298;50.900;4.648;2022-12-18T00:04:37;-4.10;97.10
26687;DHT22;14298;50.900;4.648;2022-12-18T00:07:05;-4.10;97.10
26687;DHT22;14298;50.900;4.648;2022-12-18T00:09:33;-4.10;97.10
26687;DHT22;14298;50.900;4.648;2022-12-18T00:12:01;-4.10;97.10
26687;DHT22;14298;50.900;4.648;2022-12-18T00:14:31;-4.10;97.10
26687;DHT22;14298;50.900;4.648;2022-12-18T00:16:59;-4.10;97.10
26687;DHT22;14298;50.900;4.648;2022-12-18T00:19:27;-4.20;97.10
26687;DHT22;14298;50.900;4.648;2022-12-18T00:21:56;-4.20;97.10
26687;DHT22;14298;50.900;4.648;2022-12-18T00:24:25;-4.20;97.10
26687;DHT22;14298;50.900;4.648;2022-12-18T00:26:53;-4.20;97.10
26687;DHT22;14298;50.900;4.648;2022-12-18T00:29:22;-4.30;97.10
26687;DHT22;14298;50.900;4.648;2022-12-18T00:31:50;-4.30;97.10
26687;DHT22;14298;50.900;4.648;2022-12-18T00:34:18;-4.30;97.10
26687;DHT22;14298;50.900;4.648;2022-12-18T00:36:48;-4.30;97.10
26687;DHT22;14298;50.900;4.648;2022-12-18T00:39:16;-4.30;97.10
26687;DHT22;14298;50.900;4.648;2022-12-18T00:41:44;-4.30;97.10
26687;DHT22;14298;50.900;4.648;2022-12-18T00:44:31;-4.30;97.10
26687;DHT22;14298;50.900;4.648;2022-12-18T00:46:59;-4.30;97.10
26687;DHT22;14298;50.900;4.648;2022-12-18T00:49:27;-4.30;97.10
26687;DHT22;14298;50.900;4.648;2022-12-18T00:51:56;-4.30;97.10
26687;DHT22;14298;50.900;4.648;2022-12-18T00:54:24;-4.30;97.10
26687;DHT22;14298;50.900;4.648;2022-12-18T00:56:53;-4.30;97.10
26687;DHT22;14298;50.900;4.648;2022-12-18T00:59:22;-4.30;97.10
26687;DHT22;14298;50.900;4.648;2022-12-18T01:01:50;-4.20;97.10
26687;DHT22;14298;50.900;4.648;2022-12-18T01:04:19;-4.20;97.10
26687;DHT22;14298;50.900;4.648;2022-12-18T01:06:47;-4.20;97.10
26687;DHT22;14298;50.900;4.648;2022-12-18T01:09:15;-4.20;97.10
26687;DHT22;14298;50.900;4.648;2022-12-18T01:11:44;-4.20;97.10
26687;DHT22;14298;50.900;4.648;2022-12-18T01:14:12;-4.20;97.10
26687;DHT22;14298;50.900;4.648;2022-12-18T01:16:40;-4.30;97.10
26687;DHT22;14298;50.900;4.648;2022-12-18T01:19:09;-4.30;97.10
26687;DHT22;14298;50.900;4.648;2022-12-18T01:21:37;-4.30;97.10
26687;DHT22;14298;50.900;4.648;2022-12-18T01:24:05;-4.30;97.10
26687;DHT22;14298;50.900;4.648;2022-12-18T01:26:34;-4.30;97.10
26687;DHT22;14298;50.900;4.648;2022-12-18T01:29:02;-4.30;97.10
26687;DHT22;14298;50.900;4.648;2022-12-18T01:31:33;-4.30;97.10
26687;DHT22;14298;50.900;4.648;2022-12-18T01:34:03;-4.40;97.10
26687;DHT22;14298;50.900;4.648;2022-12-18T01:36:33;-4.50;97.10
26687;DHT22;14298;50.900;4.648;2022-12-18T01:39:04;-4.50;97.10
26687;DHT22;14298;50.900;4.648;2022-12-18T01:41:34;-4.60;97.10
26687;DHT22;14298;50.900;4.648;2022-12-18T01:50:16;-4.70;97.10
26687;DHT22;14298;50.900;4.648;2022-12-18T01:52:50;-4.80;97.10
26687;DHT22;14298;50.900;4.648;2022-12-18T01:55:28;-4.80;97.10
26687;DHT22;14298;50.900;4.648;2022-12-18T01:57:53;-4.80;97.10
26687;DHT22;14298;50.900;4.648;2022-12-18T02:00:23;-4.80;97.10
26687;DHT22;14298;50.900;4.648;2022-12-18T02:02:52;-5.00;97.10
26687;DHT22;14298;50.900;4.648;2022-12-18T02:05:37;-5.10;97.10
26687;DHT22;14298;50.900;4.648;2022-12-18T02:11:27;-5.40;97.10
26687;DHT22;14298;50.900;4.648;2022-12-18T02:14:24;-5.50;97.10
26687;DHT22;14298;50.900;4.648;2022-12-18T02:19:34;-5.90;97.10
26687;DHT22;14298;50.900;4.648;2022-12-18T02:24:50;-6.20;97.10
26687;DHT22;14298;50.900;4.648;2022-12-18T02:27:15;-6.30;97.10
26687;DHT22;14298;50.900;4.648;2022-12-18T02:29:54;-6.30;97.10
26687;DHT22;14298;50.900;4.648;2022-12-18T02:32:31;-6.40;97.10
26687;DHT22;14298;50.900;4.648;2022-12-18T02:34:56;-6.50;97.10
26687;DHT22;14298;50.900;4.648;2022-12-18T02:37:27;-6.60;97.10
26687;DHT22;14298;50.900;4.648;2022-12-18T02:39:57;-6.70;97.10
26687;DHT22;14298;50.900;4.648;2022-12-18T02:42:28;-6.60;97.10
26687;DHT22;14298;50.900;4.648;2022-12-18T02:44:56;-6.70;97.10
26687;DHT22;14298;50.900;4.648;2022-12-18T02:47:30;-6.80;97.10
26687;DHT22;14298;50.900;4.648;2022-12-18T02:55:29;-7.10;97.10
26687;DHT22;14298;50.900;4.648;2022-12-18T02:58:16;-7.20;97.10
26687;DHT22;14298;50.900;4.648;2022-12-18T03:00:53;-7.20;97.10
26687;DHT22;14298;50.900;4.648;2022-12-18T03:03:35;-7.30;97.10
26687;DHT22;14298;50.900;4.648;2022-12-18T03:06:11;-7.30;97.10
26687;DHT22;14298;50.900;4.648;2022-12-18T03:08:43;-7.40;97.10
26687;DHT22;14298;50.900;4.648;2022-12-18T03:11:13;-7.50;97.10
26687;DHT22;14298;50.900;4.648;2022-12-18T03:13:48;-7.50;97.10
26687;DHT22;14298;50.900;4.648;2022-12-18T03:16:20;-7.60;97.10
26687;DHT22;14298;50.900;4.648;2022-12-18T03:18:51;-7.60;97.10
26687;DHT22;14298;50.900;4.648;2022-12-18T03:21:50;-7.60;97.10
26687;DHT22;14298;50.900;4.648;2022-12-18T03:24:11;-7.60;97.10
26687;DHT22;14298;50.900;4.648;2022-12-18T03:26:42;-7.50;97.10
26687;DHT22;14298;50.900;4.648;2022-12-18T03:29:20;-7.50;97.10
26687;DHT22;14298;50.900;4.648;2022-12-18T03:31:54;-7.40;97.10
26687;DHT22;14298;50.900;4.648;2022-12-18T03:34:42;-7.30;97.10
26687;DHT22;14298;50.900;4.648;2022-12-18T03:37:12;-7.20;97.10
26687;DHT22;14298;50.900;4.648;2022-12-18T03:39:40;-7.10;97.10
26687;DHT22;14298;50.900;4.648;2022-12-18T03:42:26;-7.10;97.10
26687;DHT22;14298;50.900;4.648;2022-12-18T03:44:57;-7.20;97.10
26687;DHT22;14298;50.900;4.648;2022-12-18T03:50:12;-7.50;97.10
26687;DHT22;14298;50.900;4.648;2022-12-18T03:52:57;-7.50;97.10
26687;DHT22;14298;50.900;4.648;2022-12-18T03:55:27;-7.60;97.10
26687;DHT22;14298;50.900;4.648;2022-12-18T03:57:56;-7.60;97.10
26687;DHT22;14298;50.900;4.648;2022-12-18T04:00:25;-7.70;97.10
26687;DHT22;14298;50.900;4.648;2022-12-18T04:05:44;-7.60;97.10
26687;DHT22;14298;50.900;4.648;2022-12-18T04:08:14;-7.40;97.10
26687;DHT22;14298;50.900;4.648;2022-12-18T04:10:42;-7.30;97.10
26687;DHT22;14298;50.900;4.648;2022-12-18T04:13:11;-7.30;97.10
26687;DHT22;14298;50.900;4.648;2022-12-18T04:15:40;-7.40;97.10
26687;DHT22;14298;50.900;4.648;2022-12-18T04:18:08;-7.50;97.10
26687;DHT22;14298;50.900;4.648;2022-12-18T04:20:36;-7.50;97.10
26687;DHT22;14298;50.900;4.648;2022-12-18T04:23:05;-7.50;97.10
26687;DHT22;14298;50.900;4.648;2022-12-18T04:25:33;-7.50;97.10
26687;DHT22;14298;50.900;4.648;2022-12-18T04:28:01;-7.40;97.10
26687;DHT22;14298;50.900;4.648;2022-12-18T04:30:30;-7.30;97.10
26687;DHT22;14298;50.900;4.648;2022-12-18T04:32:58;-7.30;97.10
26687;DHT22;14298;50.900;4.648;2022-12-18T04:35:27;-7.40;97.10
26687;DHT22;14298;50.900;4.648;2022-12-18T04:37:55;-7.50;97.10
26687;DHT22;14298;50.900;4.648;2022-12-18T04:40:23;-7.60;97.10
26687;DHT22;14298;50.900;4.648;2022-12-18T04:42:52;-7.70;97.10
26687;DHT22;14298;50.900;4.648;2022-12-18T04:45:20;-7.80;97.10
26687;DHT22;14298;50.900;4.648;2022-12-18T04:47:48;-7.80;97.10
26687;DHT22;14298;50.900;4.648;2022-12-18T04:50:17;-7.90;97.10
26687;DHT22;14298;50.900;4.648;2022-12-18T04:52:45;-7.90;97.10
26687;DHT22;14298;50.900;4.648;2022-12-18T04:55:13;-7.80;97.10
26687;DHT22;14298;50.900;4.648;2022-12-18T04:57:42;-7.80;97.10
26687;DHT22;14298;50.900;4.648;2022-12-18T05:00:12;-7.80;97.10
26687;DHT22;14298;50.900;4.648;2022-12-18T05:03:01;-7.80;97.10
26687;DHT22;14298;50.900;4.648;2022-12-18T05:05:30;-7.90;97.10
26687;DHT22;14298;50.900;4.648;2022-12-18T05:07:58;-7.90;97.10
26687;DHT22;14298;50.900;4.648;2022-12-18T05:10:26;-8.00;97.10
26687;DHT22;14298;50.900;4.648;2022-12-18T05:12:55;-7.90;97.10
26687;DHT22;14298;50.900;4.648;2022-12-18T05:15:30;-8.00;97.10
26687;DHT22;14298;50.900;4.648;2022-12-18T05:17:59;-8.00;97.10
26687;DHT22;14298;50.900;4.648;2022-12-18T05:20:28;-8.00;97.10
26687;DHT22;14298;50.900;4.648;2022-12-18T05:22:57;-8.00;97.10
26687;DHT22;14298;50.900;4.648;2022-12-18T05:25:26;-8.00;97.10
26687;DHT22;14298;50.900;4.648;2022-12-18T05:27:54;-8.00;97.10
26687;DHT22;14298;50.900;4.648;2022-12-18T05:30:22;-8.10;97.10
26687;DHT22;14298;50.900;4.648;2022-12-18T05:32:51;-8.10;97.10
26687;DHT22;14298;50.900;4.648;2022-12-18T05:35:19;-8.10;97.10
26687;DHT22;14298;50.900;4.648;2022-12-18T05:37:47;-8.00;97.10
26687;DHT22;14298;50.900;4.648;2022-12-18T05:40:16;-8.00;97.10
26687;DHT22;14298;50.900;4.648;2022-12-18T05:42:44;-7.90;97.10
26687;DHT22;14298;50.900;4.648;2022-12-18T05:45:12;-7.90;97.10
26687;DHT22;14298;50.900;4.648;2022-12-18T05:47:41;-7.90;97.10
26687;DHT22;14298;50.900;4.648;2022-12-18T05:50:09;-7.80;97.10
26687;DHT22;14298;50.900;4.648;2022-12-18T05:52:37;-7.80;97.10
26687;DHT22;14298;50.900;4.648;2022-12-18T05:55:06;-7.70;97.10
26687;DHT22;14298;50.900;4.648;2022-12-18T05:57:34;-7.60;97.10
26687;DHT22;14298;50.900;4.648;2022-12-18T06:00:03;-7.50;97.10
26687;DHT22;14298;50.900;4.648;2022-12-18T06:02:32;-7.50;97.10
26687;DHT22;14298;50.900;4.648;2022-12-18T06:05:00;-7.50;97.10
26687;DHT22;14298;50.900;4.648;2022-12-18T06:07:28;-7.50;97.10
26687;DHT22;14298;50.900;4.648;2022-12-18T06:09:57;-7.50;97.10
26687;DHT22;14298;50.900;4.648;2022-12-18T06:12:25;-7.40;97.10
26687;DHT22;14298;50.900;4.648;2022-12-18T06:14:53;-7.20;97.10
26687;DHT22;14298;50.900;4.648;2022-12-18T06:17:22;-7.20;97.10
26687;DHT22;14298;50.900;4.648;2022-12-18T06:19:50;-7.20;97.10
26687;DHT22;14298;50.900;4.648;2022-12-18T06:22:18;-7.20;97.10
26687;DHT22;14298;50.900;4.648;2022-12-18T06:24:47;-7.00;97.10
26687;DHT22;14298;50.900;4.648;2022-12-18T06:27:16;-6.90;97.10
26687;DHT22;14298;50.900;4.648;2022-12-18T06:29:44;-6.70;97.10
26687;DHT22;14298;50.900;4.648;2022-12-18T06:32:13;-6.60;97.10
26687;DHT22;14298;50.900;4.648;2022-12-18T06:34:41;-6.70;97.10
26687;DHT22;14298;50.900;4.648;2022-12-18T06:37:09;-6.60;97.10
26687;DHT22;14298;50.900;4.648;2022-12-18T06:39:37;-6.20;97.10
26687;DHT22;14298;50.900;4.648;2022-12-18T06:42:06;-5.90;97.10
26687;DHT22;14298;50.900;4.648;2022-12-18T06:44:34;-5.70;97.10
26687;DHT22;14298;50.900;4.648;2022-12-18T06:47:03;-5.60;97.10
26687;DHT22;14298;50.900;4.648;2022-12-18T06:49:31;-5.60;97.10
26687;DHT22;14298;50.900;4.648;2022-12-18T06:52:00;-5.60;97.10
26687;DHT22;14298;50.900;4.648;2022-12-18T06:54:28;-5.70;97.10
26687;DHT22;14298;50.900;4.648;2022-12-18T06:56:56;-5.80;97.10
26687;DHT22;14298;50.900;4.648;2022-12-18T06:59:25;-5.80;97.10
26687;DHT22;14298;50.900;4.648;2022-12-18T07:01:53;-5.90;97.10
26687;DHT22;14298;50.900;4.648;2022-12-18T07:04:21;-5.90;97.10
26687;DHT22;14298;50.900;4.648;2022-12-18T07:06:50;-5.70;97.10
26687;DHT22;14298;50.900;4.648;2022-12-18T07:09:19;-5.70;97.10
26687;DHT22;14298;50.900;4.648;2022-12-18T07:11:47;-5.80;97.10
26687;DHT22;14298;50.900;4.648;2022-12-18T07:14:15;-5.90;97.10
26687;DHT22;14298;50.900;4.648;2022-12-18T07:16:44;-5.90;97.10
26687;DHT22;14298;50.900;4.648;2022-12-18T07:19:12;-5.80;97.10
26687;DHT22;14298;50.900;4.648;2022-12-18T07:21:40;-5.70;97.10
26687;DHT22;14298;50.900;4.648;2022-12-18T07:24:08;-5.60;97.10
26687;DHT22;14298;50.900;4.648;2022-12-18T07:26:37;-5.60;97.10
26687;DHT22;14298;50.900;4.648;2022-12-18T07:29:05;-5.60;97.10
26687;DHT22;14298;50.900;4.648;2022-12-18T07:31:34;-5.50;97.10
26687;DHT22;14298;50.900;4.648;2022-12-18T07:34:02;-5.50;97.10
26687;DHT22;14298;50.900;4.648;2022-12-18T07:36:30;-5.40;97.10
26687;DHT22;14298;50.900;4.648;2022-12-18T07:38:59;-5.40;97.10
26687;DHT22;14298;50.900;4.648;2022-12-18T07:41:27;-5.40;97.10
26687;DHT22;14298;50.900;4.648;2022-12-18T07:43:55;-5.40;97.10
26687;DHT22;14298;50.900;4.648;2022-12-18T07:46:24;-5.50;97.10
26687;DHT22;14298;50.900;4.648;2022-12-18T07:48:52;-5.60;97.10
26687;DHT22;14298;50.900;4.648;2022-12-18T07:51:20;-5.60;97.10
26687;DHT22;14298;50.900;4.648;2022-12-18T07:53:49;-5.60;97.10
26687;DHT22;14298;50.900;4.648;2022-12-18T07:56:17;-5.60;97.10
26687;DHT22;14298;50.900;4.648;2022-12-18T07:58:45;-5.50;97.10
26687;DHT22;14298;50.900;4.648;2022-12-18T08:01:14;-5.50;97.10
26687;DHT22;14298;50.900;4.648;2022-12-18T08:03:42;-5.40;97.10
26687;DHT22;14298;50.900;4.648;2022-12-18T08:06:10;-5.40;97.10
26687;DHT22;14298;50.900;4.648;2022-12-18T08:08:39;-5.20;97.10
26687;DHT22;14298;50.900;4.648;2022-12-18T08:11:08;-5.10;97.10
26687;DHT22;14298;50.900;4.648;2022-12-18T08:13:37;-5.00;97.10
26687;DHT22;14298;50.900;4.648;2022-12-18T08:16:07;-5.00;97.10
26687;DHT22;14298;50.900;4.648;2022-12-18T08:18:37;-4.90;97.10
26687;DHT22;14298;50.900;4.648;2022-12-18T08:21:10;-4.80;97.10
26687;DHT22;14298;50.900;4.648;2022-12-18T08:23:38;-4.70;97.10
26687;DHT22;14298;50.900;4.648;2022-12-18T08:26:07;-4.60;97.10
26687;DHT22;14298;50.900;4.648;2022-12-18T08:28:36;-4.50;97.10
26687;DHT22;14298;50.900;4.648;2022-12-18T08:31:05;-4.40;97.10
26687;DHT22;14298;50.900;4.648;2022-12-18T08:33:33;-4.20;97.10
26687;DHT22;14298;50.900;4.648;2022-12-18T08:36:03;-4.00;97.10
26687;DHT22;14298;50.900;4.648;2022-12-18T08:38:32;-4.00;97.10
26687;DHT22;14298;50.900;4.648;2022-12-18T08:41:09;-3.90;97.10
26687;DHT22;14298;50.900;4.648;2022-12-18T08:43:38;-3.90;97.10
26687;DHT22;14298;50.900;4.648;2022-12-18T08:46:27;-3.80;97.10
26687;DHT22;14298;50.900;4.648;2022-12-18T08:48:55;-3.90;97.10
26687;DHT22;14298;50.900;4.648;2022-12-18T08:51:24;-4.00;97.10
26687;DHT22;14298;50.900;4.648;2022-12-18T08:53:52;-4.00;97.10
26687;DHT22;14298;50.900;4.648;2022-12-18T08:56:20;-4.00;97.10
26687;DHT22;14298;50.900;4.648;2022-12-18T08:58:53;-3.90;97.10
26687;DHT22;14298;50.900;4.648;2022-12-18T09:01:23;-3.80;97.10
26687;DHT22;14298;50.900;4.648;2022-12-18T09:03:51;-3.70;97.10
26687;DHT22;14298;50.900;4.648;2022-12-18T09:06:21;-3.60;97.10
26687;DHT22;14298;50.900;4.648;2022-12-18T09:08:50;-3.50;97.10
26687;DHT22;14298;50.900;4.648;2022-12-18T09:14:11;-3.40;97.10
26687;DHT22;14298;50.900;4.648;2022-12-18T09:16:39;-3.30;97.10
26687;DHT22;14298;50.900;4.648;2022-12-18T09:19:08;-3.30;97.10
26687;DHT22;14298;50.900;4.648;2022-12-18T09:21:37;-3.30;97.10
26687;DHT22;14298;50.900;4.648;2022-12-18T09:24:06;-3.20;97.10
26687;DHT22;14298;50.900;4.648;2022-12-18T09:26:34;-3.10;97.10
26687;DHT22;14298;50.900;4.648;2022-12-18T09:29:03;-3.10;97.10
26687;DHT22;14298;50.900;4.648;2022-12-18T09:31:34;-3.00;97.10
26687;DHT22;14298;50.900;4.648;2022-12-18T09:34:02;-3.00;97.10
26687;DHT22;14298;50.900;4.648;2022-12-18T09:36:31;-2.90;97.10
26687;DHT22;14298;50.900;4.648;2022-12-18T09:38:59;-2.80;97.10
26687;DHT22;14298;50.900;4.648;2022-12-18T09:44:25;-2.70;97.10
26687;DHT22;14298;50.900;4.648;2022-12-18T09:50:00;-2.60;97.10
26687;DHT22;14298;50.900;4.648;2022-12-18T09:52:37;-2.60;97.10
26687;DHT22;14298;50.900;4.648;2022-12-18T09:55:13;-2.50;97.10
26687;DHT22;14298;50.900;4.648;2022-12-18T09:57:50;-2.50;97.10
26687;DHT22;14298;50.900;4.648;2022-12-18T10:00:22;-2.50;97.10
26687;DHT22;14298;50.900;4.648;2022-12-18T10:02:59;-2.40;97.10
26687;DHT22;14298;50.900;4.648;2022-12-18T10:05:35;-2.40;97.10
26687;DHT22;14298;50.900;4.648;2022-12-18T10:13:34;-2.20;97.10
26687;DHT22;14298;50.900;4.648;2022-12-18T10:19:15;-2.10;97.10
26687;DHT22;14298;50.900;4.648;2022-12-18T10:22:02;-2.10;97.10
26687;DHT22;14298;50.900;4.648;2022-12-18T10:24:51;-2.10;97.10
26687;DHT22;14298;50.900;4.648;2022-12-18T10:27:25;-2.10;97.10
26687;DHT22;14298;50.900;4.648;2022-12-18T10:29:49;-2.10;97.10
26687;DHT22;14298;50.900;4.648;2022-12-18T10:32:29;-2.10;97.10
26687;DHT22;14298;50.900;4.648;2022-12-18T10:38:05;-2.10;97.10
26687;DHT22;14298;50.900;4.648;2022-12-18T10:40:29;-2.00;97.10
26687;DHT22;14298;50.900;4.648;2022-12-18T10:43:12;-2.00;97.10
26687;DHT22;14298;50.900;4.648;2022-12-18T10:45:35;-1.90;97.10
26687;DHT22;14298;50.900;4.648;2022-12-18T10:48:03;-1.90;97.10
26687;DHT22;14298;50.900;4.648;2022-12-18T10:50:33;-1.80;97.10
26687;DHT22;14298;50.900;4.648;2022-12-18T10:53:04;-1.70;97.10
26687;DHT22;14298;50.900;4.648;2022-12-18T10:55:35;-1.70;97.10
26687;DHT22;14298;50.900;4.648;2022-12-18T10:58:25;-1.60;97.10
26687;DHT22;14298;50.900;4.648;2022-12-18T11:03:40;-1.60;97.10
26687;DHT22;14298;50.900;4.648;2022-12-18T11:06:17;-1.50;97.10
26687;DHT22;14298;50.900;4.648;2022-12-18T11:11:29;-1.40;97.10
26687;DHT22;14298;50.900;4.648;2022-12-18T11:14:11;-1.40;97.10
26687;DHT22;14298;50.900;4.648;2022-12-18T11:16:47;-1.40;97.10
26687;DHT22;14298;50.900;4.648;2022-12-18T11:19:36;-1.30;97.10
26687;DHT22;14298;50.900;4.648;2022-12-18T11:25:18;-1.20;97.10
26687;DHT22;14298;50.900;4.648;2022-12-18T11:27:59;-1.10;97.10
26687;DHT22;14298;50.900;4.648;2022-12-18T11:30:30;-1.00;97.10
26687;DHT22;14298;50.900;4.648;2022-12-18T11:33:06;-1.00;97.10
26687;DHT22;14298;50.900;4.648;2022-12-18T11:35:55;-0.90;97.10
26687;DHT22;14298;50.900;4.648;2022-12-18T11:38:33;-0.90;97.10
26687;DHT22;14298;50.900;4.648;2022-12-18T11:50:24;-0.80;97.10
26687;DHT22;14298;50.900;4.648;2022-12-18T11:52:53;-0.80;97.10
26687;DHT22;14298;50.900;4.648;2022-12-18T11:55:47;-0.80;97.10
26687;DHT22;14298;50.900;4.648;2022-12-18T11:58:27;-0.80;97.10
26687;DHT22;14298;50.900;4.648;2022-12-18T12:18:01;-0.20;97.10
26687;DHT22;14298;50.900;4.648;2022-12-18T12:20:42;-0.10;97.10
26687;DHT22;14298;50.900;4.648;2022-12-18T12:23:20;-0.20;97.10
26687;DHT22;14298;50.900;4.648;2022-12-18T12:26:00;-0.30;97.10
26687;DHT22;14298;50.900;4.648;2022-12-18T12:39:01;-0.10;97.10
26687;DHT22;14298;50.900;4.648;2022-12-18T12:41:32;-0.10;97.10
26687;DHT22;14298;50.900;4.648;2022-12-18T12:44:30;0.00;97.10
26687;DHT22;14298;50.900;4.648;2022-12-18T12:46:56;0.00;97.10
26687;DHT22;14298;50.900;4.648;2022-12-18T12:49:27;0.10;97.10
26687;DHT22;14298;50.900;4.648;2022-12-18T12:52:05;0.20;97.10
26687;DHT22;14298;50.900;4.648;2022-12-18T12:54:34;0.30;97.10
26687;DHT22;14298;50.900;4.648;2022-12-18T13:00:08;0.60;97.10
26687;DHT22;14298;50.900;4.648;2022-12-18T13:02:59;0.60;97.10
26687;DHT22;14298;50.900;4.648;2022-12-18T13:05:30;0.70;97.10
26687;DHT22;14298;50.900;4.648;2022-12-18T13:08:10;0.80;97.10
26687;DHT22;14298;50.900;4.648;2022-12-18T13:10:48;0.70;97.10
26687;DHT22;14298;50.900;4.648;2022-12-18T13:13:18;0.70;97.10
26687;DHT22;14298;50.900;4.648;2022-12-18T13:16:07;0.70;97.10
26687;DHT22;14298;50.900;4.648;2022-12-18T13:18:37;0.80;97.10
26687;DHT22;14298;50.900;4.648;2022-12-18T13:21:15;0.90;97.10
26687;DHT22;14298;50.900;4.648;2022-12-18T13:23:40;0.80;97.10
26687;DHT22;14298;50.900;4.648;2022-12-18T13:34:18;0.90;97.10
26687;DHT22;14298;50.900;4.648;2022-12-18T13:36:48;0.90;97.10
26687;DHT22;14298;50.900;4.648;2022-12-18T13:39:23;1.00;97.10
26687;DHT22;14298;50.900;4.648;2022-12-18T13:42:39;1.00;97.10
26687;DHT22;14298;50.900;4.648;2022-12-18T13:44:37;1.00;97.10
26687;DHT22;14298;50.900;4.648;2022-12-18T13:47:04;0.90;97.10
26687;DHT22;14298;50.900;4.648;2022-12-18T13:49:38;0.90;97.10
26687;DHT22;14298;50.900;4.648;2022-12-18T13:52:24;0.90;97.10
26687;DHT22;14298;50.900;4.648;2022-12-18T13:54:59;0.90;97.10
26687;DHT22;14298;50.900;4.648;2022-12-18T13:57:34;0.80;97.10
26687;DHT22;14298;50.900;4.648;2022-12-18T14:02:52;0.80;97.10
26687;DHT22;14298;50.900;4.648;2022-12-18T14:05:26;0.80;97.10
26687;DHT22;14298;50.900;4.648;2022-12-18T14:07:55;0.90;97.10
26687;DHT22;14298;50.900;4.648;2022-12-18T14:10:25;0.80;97.10
26687;DHT22;14298;50.900;4.648;2022-12-18T14:12:54;0.80;97.10
26687;DHT22;14298;50.900;4.648;2022-12-18T14:15:38;0.80;97.10
26687;DHT22;14298;50.900;4.648;2022-12-18T14:20:51;0.80;97.10
26687;DHT22;14298;50.900;4.648;2022-12-18T14:23:37;0.80;97.10
26687;DHT22;14298;50.900;4.648;2022-12-18T14:26:26;0.70;97.10
26687;DHT22;14298;50.900;4.648;2022-12-18T14:29:11;0.70;97.10
26687;DHT22;14298;50.900;4.648;2022-12-18T14:31:32;0.70;97.10
26687;DHT22;14298;50.900;4.648;2022-12-18T14:34:00;0.70;97.10
26687;DHT22;14298;50.900;4.648;2022-12-18T14:36:29;0.60;97.10
26687;DHT22;14298;50.900;4.648;2022-12-18T14:38:58;0.70;97.10
26687;DHT22;14298;50.900;4.648;2022-12-18T14:41:27;0.70;97.10
26687;DHT22;14298;50.900;4.648;2022-12-18T14:44:04;0.70;97.10
26687;DHT22;14298;50.900;4.648;2022-12-18T14:46:35;0.70;97.10
26687;DHT22;14298;50.900;4.648;2022-12-18T14:51:55;0.70;97.10
26687;DHT22;14298;50.900;4.648;2022-12-18T14:54:29;0.70;97.10
26687;DHT22;14298;50.900;4.648;2022-12-18T14:57:06;0.70;97.10
26687;DHT22;14298;50.900;4.648;2022-12-18T14:59:34;0.70;97.10
26687;DHT22;14298;50.900;4.648;2022-12-18T15:02:22;0.60;97.10
26687;DHT22;14298;50.900;4.648;2022-12-18T15:10:23;0.70;97.10
26687;DHT22;14298;50.900;4.648;2022-12-18T15:20:59;0.60;97.10
26687;DHT22;14298;50.900;4.648;2022-12-18T15:23:33;0.60;97.10
26687;DHT22;14298;50.900;4.648;2022-12-18T15:26:01;0.60;97.10
26687;DHT22;14298;50.900;4.648;2022-12-18T15:28:39;0.70;97.10
26687;DHT22;14298;50.900;4.648;2022-12-18T15:36:23;0.60;97.10
26687;DHT22;14298;50.900;4.648;2022-12-18T15:38:54;0.70;97.10
26687;DHT22;14298;50.900;4.648;2022-12-18T15:41:24;0.70;97.10
26687;DHT22;14298;50.900;4.648;2022-12-18T15:43:53;0.80;97.10
26687;DHT22;14298;50.900;4.648;2022-12-18T15:46:23;0.80;97.10
26687;DHT22;14298;50.900;4.648;2022-12-18T15:48:54;0.70;97.10
26687;DHT22;14298;50.900;4.648;2022-12-18T15:51:29;0.80;97.10
26687;DHT22;14298;50.900;4.648;2022-12-18T15:53:56;0.80;97.10
26687;DHT22;14298;50.900;4.648;2022-12-18T15:56:25;0.80;97.10
26687;DHT22;14298;50.900;4.648;2022-12-18T15:59:13;0.80;97.10
26687;DHT22;14298;50.900;4.648;2022-12-18T16:01:45;0.80;97.10
26687;DHT22;14298;50.900;4.648;2022-12-18T16:04:15;0.80;97.10
26687;DHT22;14298;50.900;4.648;2022-12-18T16:06:44;0.80;97.10
26687;DHT22;14298;50.900;4.648;2022-12-18T16:09:13;0.80;97.10
26687;DHT22;14298;50.900;4.648;2022-12-18T16:11:43;0.80;97.10
26687;DHT22;14298;50.900;4.648;2022-12-18T16:14:20;0.80;97.10
26687;DHT22;14298;50.900;4.648;2022-12-18T16:16:51;0.90;97.10
26687;DHT22;14298;50.900;4.648;2022-12-18T16:19:19;0.90;97.10
26687;DHT22;14298;50.900;4.648;2022-12-18T16:21:51;0.90;97.10
26687;DHT22;14298;50.900;4.648;2022-12-18T16:24:39;0.90;97.10
26687;DHT22;14298;50.900;4.648;2022-12-18T16:27:11;0.90;97.10
26687;DHT22;14298;50.900;4.648;2022-12-18T16:29:39;0.90;97.10
26687;DHT22;14298;50.900;4.648;2022-12-18T16:32:16;0.90;97.10
26687;DHT22;14298;50.900;4.648;2022-12-18T16:34:39;1.00;97.10
26687;DHT22;14298;50.900;4.648;2022-12-18T16:37:10;1.00;97.10
26687;DHT22;14298;50.900;4.648;2022-12-18T16:39:41;0.90;97.10
26687;DHT22;14298;50.900;4.648;2022-12-18T16:42:19;1.00;97.10
26687;DHT22;14298;50.900;4.648;2022-12-18T16:44:46;0.90;97.10
26687;DHT22;14298;50.900;4.648;2022-12-18T16:47:15;1.00;97.10
26687;DHT22;14298;50.900;4.648;2022-12-18T16:49:44;0.90;97.10
26687;DHT22;14298;50.900;4.648;2022-12-18T16:52:13;0.90;97.10
26687;DHT22;14298;50.900;4.648;2022-12-18T16:54:42;0.90;97.10
26687;DHT22;14298;50.900;4.648;2022-12-18T16:57:16;1.00;97.10
26687;DHT22;14298;50.900;4.648;2022-12-18T16:59:45;1.00;97.10
26687;DHT22;14298;50.900;4.648;2022-12-18T17:02:19;1.00;97.10
26687;DHT22;14298;50.900;4.648;2022-12-18T17:04:47;1.00;97.10
26687;DHT22;14298;50.900;4.648;2022-12-18T17:07:16;1.00;97.10
26687;DHT22;14298;50.900;4.648;2022-12-18T17:09:44;1.00;97.10
26687;DHT22;14298;50.900;4.648;2022-12-18T17:12:12;1.00;97.10
26687;DHT22;14298;50.900;4.648;2022-12-18T17:14:41;1.00;97.10
26687;DHT22;14298;50.900;4.648;2022-12-18T17:17:09;1.00;97.10
26687;DHT22;14298;50.900;4.648;2022-12-18T17:19:37;1.00;97.10
26687;DHT22;14298;50.900;4.648;2022-12-18T17:22:06;1.00;97.10
26687;DHT22;14298;50.900;4.648;2022-12-18T17:24:35;1.10;97.10
26687;DHT22;14298;50.900;4.648;2022-12-18T17:27:04;1.10;97.10
26687;DHT22;14298;50.900;4.648;2022-12-18T17:29:32;1.10;97.10
26687;DHT22;14298;50.900;4.648;2022-12-18T17:32:01;1.10;97.10
26687;DHT22;14298;50.900;4.648;2022-12-18T17:34:29;1.10;97.10
26687;DHT22;14298;50.900;4.648;2022-12-18T17:36:57;1.10;97.10
26687;DHT22;14298;50.900;4.648;2022-12-18T17:39:26;1.10;97.10
26687;DHT22;14298;50.900;4.648;2022-12-18T17:41:54;1.10;97.10
26687;DHT22;14298;50.900;4.648;2022-12-18T17:44:23;1.10;97.10
26687;DHT22;14298;50.900;4.648;2022-12-18T17:46:51;1.10;97.10
26687;DHT22;14298;50.900;4.648;2022-12-18T17:49:20;1.10;97.10
26687;DHT22;14298;50.900;4.648;2022-12-18T17:51:48;1.10;97.10
26687;DHT22;14298;50.900;4.648;2022-12-18T17:54:17;1.00;97.10
26687;DHT22;14298;50.900;4.648;2022-12-18T17:56:46;1.00;97.10
26687;DHT22;14298;50.900;4.648;2022-12-18T17:59:14;1.00;97.10
26687;DHT22;14298;50.900;4.648;2022-12-18T18:01:42;1.00;97.10
26687;DHT22;14298;50.900;4.648;2022-12-18T18:04:11;1.00;97.10
26687;DHT22;14298;50.900;4.648;2022-12-18T18:06:40;1.00;97.10
26687;DHT22;14298;50.900;4.648;2022-12-18T18:09:08;0.90;97.10
26687;DHT22;14298;50.900;4.648;2022-12-18T18:11:37;0.80;97.10